METAR Formatted Surface Weather Observation
Issued by NWS

Home | Current Version | Previous Version | Text Only | Print | Product List | Glossary On
Versions: 1 2 3 4 5 6 7 8 9 10 11 12 13 14 15 16 17 18
000
SAUS41 KBOX 191156
MTRMQE
METAR KMQE 191154Z AUTO 24009KT 06/00 A2966 RMK AO1 SLP056 T00610000
10089 20061 51024



USA.gov is the U.S. government's official web portal to all federal, state and local government web resources and services.